Time;durP1;ratioP1;P1;durP2;ratioP2;P2;SDS_P1;SDS_P2;PMS_P1;PMS_P2;Temp;Humidity;BMP_temperature;BMP_pressure;BME280_temperature;BME280_humidity;BME280_pressure;Samples;Min_cycle;Max_cycle;Signal;HPM_P1;HPM_P2
2022/07/07 00:01:47;;;;;;;4.22;0.88;;;22.60;59.30;;;;;;4494533;31;20081;-69
2022/07/07 00:04:13;;;;;;;2.25;0.90;;;22.60;59.30;;;;;;4494509;31;20135;-68
2022/07/07 00:06:39;;;;;;;3.17;0.80;;;22.60;59.30;;;;;;4494213;31;20073;-68
2022/07/07 00:09:05;;;;;;;1.30;0.60;;;22.60;59.30;;;;;;4493419;31;20250;-68
2022/07/07 00:11:31;;;;;;;0.95;0.65;;;22.50;59.20;;;;;;4494476;31;20065;-68
2022/07/07 00:13:58;;;;;;;1.17;0.80;;;22.50;59.20;;;;;;4494470;31;20081;-68
2022/07/07 00:16:25;;;;;;;1.25;0.70;;;22.50;59.20;;;;;;4494697;31;20077;-69
2022/07/07 00:18:50;;;;;;;1.50;0.57;;;22.50;59.20;;;;;;4494448;31;20104;-68
2022/07/07 00:21:17;;;;;;;3.60;0.80;;;22.50;59.20;;;;;;4494001;31;20380;-68
2022/07/07 00:23:45;;;;;;;3.00;0.80;;;22.50;59.30;;;;;;4494235;31;20108;-68
2022/07/07 00:26:11;;;;;;;1.45;0.77;;;22.50;59.30;;;;;;4492921;31;20092;-68
2022/07/07 00:28:37;;;;;;;1.85;0.80;;;22.50;59.30;;;;;;4494304;31;20089;-68
2022/07/07 00:31:03;;;;;;;1.60;0.47;;;22.50;59.30;;;;;;4494247;31;20703;-69
2022/07/07 00:33:29;;;;;;;2.88;0.90;;;22.50;59.20;;;;;;4493959;31;20618;-68
2022/07/07 00:35:55;;;;;;;2.60;1.20;;;22.50;59.30;;;;;;4493732;31;20100;-68
2022/07/07 00:38:20;;;;;;;1.70;0.75;;;22.50;59.40;;;;;;4494077;31;20085;-68
2022/07/07 00:40:50;;;;;;;2.88;0.98;;;22.50;59.30;;;;;;4493703;31;20077;-69
2022/07/07 00:43:16;;;;;;;0.95;0.50;;;22.50;59.40;;;;;;4494074;31;20065;-68
2022/07/07 00:45:46;;;;;;;2.13;0.65;;;22.50;59.40;;;;;;4492677;31;20077;-68
2022/07/07 00:48:12;;;;;;;1.17;0.80;;;22.50;59.40;;;;;;4494339;31;20077;-68
2022/07/07 00:50:38;;;;;;;1.08;0.57;;;22.50;59.30;;;;;;4492712;31;20091;-68
2022/07/07 00:53:04;;;;;;;1.48;0.75;;;22.50;59.40;;;;;;4493949;31;20197;-68
2022/07/07 00:55:30;;;;;;;2.33;0.98;;;22.50;59.40;;;;;;4493783;31;20068;-68
2022/07/07 00:57:56;;;;;;;1.35;0.80;;;22.50;59.40;;;;;;4493490;31;20089;-68
2022/07/07 01:00:22;;;;;;;1.20;0.60;;;22.50;59.40;;;;;;4492542;31;20069;-68
2022/07/07 01:02:48;;;;;;;1.35;0.70;;;22.50;59.40;;;;;;4493753;31;20073;-68
2022/07/07 01:05:14;;;;;;;1.05;0.68;;;22.50;59.40;;;;;;4493564;31;20407;-69
2022/07/07 01:07:40;;;;;;;1.60;0.70;;;22.50;59.40;;;;;;4493805;31;20062;-68
2022/07/07 01:10:07;;;;;;;1.52;0.60;;;22.50;59.40;;;;;;4492522;31;20491;-68
2022/07/07 01:12:36;;;;;;;1.73;0.80;;;22.50;60.30;;;;;;4492255;31;20072;-69
2022/07/07 01:15:04;;;;;;;1.45;0.50;;;22.50;59.40;;;;;;4493549;31;20095;-68
2022/07/07 01:17:30;;;;;;;1.42;0.68;;;22.50;59.40;;;;;;4493740;31;20534;-68
2022/07/07 01:19:58;;;;;;;1.27;0.63;;;22.50;59.40;;;;;;4493156;31;20144;-68
2022/07/07 01:22:27;;;;;;;1.77;0.80;;;22.50;59.50;;;;;;4492607;31;20079;-68
2022/07/07 01:24:53;;;;;;;1.08;0.77;;;22.50;59.40;;;;;;4493628;31;20302;-68
2022/07/07 01:27:20;;;;;;;1.65;0.70;;;22.50;59.50;;;;;;4493242;31;20222;-68
2022/07/07 01:29:52;;;;;;;0.73;0.57;;;22.40;59.40;;;;;;4493203;31;20517;-68
2022/07/07 01:32:19;;;;;;;2.97;0.55;;;22.40;59.40;;;;;;4493273;31;20088;-67
2022/07/07 01:34:46;;;;;;;0.88;0.60;;;22.40;59.40;;;;;;4493184;31;20113;-67
2022/07/07 01:37:12;;;;;;;2.25;0.47;;;22.40;59.40;;;;;;4493285;31;20147;-66
2022/07/07 01:39:39;;;;;;;2.20;0.80;;;22.40;59.40;;;;;;4493395;31;20061;-66
2022/07/07 01:42:06;;;;;;;2.53;0.75;;;22.40;59.40;;;;;;4493169;31;20109;-66
2022/07/07 01:44:33;;;;;;;1.42;0.60;;;22.40;60.30;;;;;;4493099;31;20089;-66
2022/07/07 01:46:59;;;;;;;1.48;0.60;;;22.40;60.30;;;;;;4492843;31;20602;-67
2022/07/07 01:49:25;;;;;;;2.45;0.73;;;22.40;59.40;;;;;;4492185;31;20073;-66
2022/07/07 01:51:51;;;;;;;4.65;0.98;;;22.40;59.40;;;;;;4493105;31;20084;-67
2022/07/07 01:54:17;;;;;;;2.22;0.80;;;22.40;59.40;;;;;;4493039;31;20163;-67
2022/07/07 01:56:43;;;;;;;1.52;0.68;;;22.50;59.50;;;;;;4492966;31;20481;-66
2022/07/07 01:59:09;;;;;;;1.10;0.40;;;22.40;59.40;;;;;;4492627;31;20191;-66
2022/07/07 02:01:35;;;;;;;2.15;0.70;;;22.40;59.40;;;;;;4492801;31;20116;-67
2022/07/07 02:04:01;;;;;;;1.60;0.70;;;22.40;59.50;;;;;;4492848;31;20430;-67
2022/07/07 02:06:26;;;;;;;2.83;1.35;;;22.40;59.60;;;;;;4492665;31;20073;-67
2022/07/07 02:08:52;;;;;;;2.63;0.65;;;22.40;59.60;;;;;;4492789;31;20079;-67
2022/07/07 02:11:18;;;;;;;3.08;0.73;;;22.40;59.60;;;;;;4492671;31;20066;-67
2022/07/07 02:13:49;;;;;;;1.98;0.88;;;22.40;59.60;;;;;;4492846;31;20123;-67
2022/07/07 02:16:17;;;;;;;2.65;0.80;;;22.40;59.60;;;;;;4492563;31;20554;-67
2022/07/07 02:18:45;;;;;;;1.00;0.57;;;22.40;59.60;;;;;;4492347;31;20221;-67
2022/07/07 02:21:13;;;;;;;2.80;0.80;;;22.40;59.60;;;;;;4492538;31;20089;-67
2022/07/07 02:23:40;;;;;;;1.17;0.68;;;22.40;59.70;;;;;;4492600;31;20214;-67
2022/07/07 02:26:06;;;;;;;1.75;0.60;;;22.40;59.70;;;;;;4492276;31;20514;-67
2022/07/07 02:28:33;;;;;;;1.85;0.73;;;22.40;59.70;;;;;;4492583;31;20096;-67
2022/07/07 02:31:00;;;;;;;1.13;0.50;;;22.40;59.60;;;;;;4490967;31;20069;-67
2022/07/07 02:33:26;;;;;;;1.13;0.50;;;22.40;59.60;;;;;;4492229;31;20081;-67
2022/07/07 02:35:53;;;;;;;2.58;0.70;;;22.40;59.70;;;;;;4492318;31;20163;-67
2022/07/07 02:38:20;;;;;;;1.20;0.70;;;22.40;59.70;;;;;;4491269;31;20215;-67
2022/07/07 02:40:46;;;;;;;1.10;0.50;;;22.40;59.70;;;;;;4491224;31;20077;-67
2022/07/07 02:43:15;;;;;;;0.85;0.45;;;22.40;59.70;;;;;;4492340;31;20065;-67
2022/07/07 02:45:41;;;;;;;2.17;0.57;;;22.40;59.70;;;;;;4492493;31;20077;-67
2022/07/07 02:48:09;;;;;;;1.48;0.68;;;22.40;59.70;;;;;;4492209;31;20092;-66
2022/07/07 02:50:39;;;;;;;1.50;0.63;;;22.40;59.70;;;;;;4492023;31;20197;-67
2022/07/07 02:53:06;;;;;;;3.30;0.60;;;22.40;59.60;;;;;;4491381;31;20115;-66
2022/07/07 02:55:32;;;;;;;1.83;0.75;;;22.40;59.70;;;;;;4492191;31;20135;-67
2022/07/07 02:58:00;;;;;;;1.58;0.80;;;22.40;59.70;;;;;;4491860;31;20076;-67
2022/07/07 03:00:27;;;;;;;2.28;0.70;;;22.30;59.70;;;;;;4491811;31;20096;-66
2022/07/07 03:02:54;;;;;;;1.65;0.80;;;22.30;59.70;;;;;;4490898;31;20236;-67
2022/07/07 03:05:22;;;;;;;2.53;0.60;;;22.30;59.70;;;;;;4492156;31;20633;-67
2022/07/07 03:07:49;;;;;;;1.52;0.60;;;22.30;59.70;;;;;;4492034;31;20095;-67
2022/07/07 03:10:15;;;;;;;1.25;0.68;;;22.30;59.70;;;;;;4492256;31;20076;-67
2022/07/07 03:12:42;;;;;;;1.50;0.68;;;22.30;59.70;;;;;;4491991;31;20084;-67
2022/07/07 03:15:08;;;;;;;1.17;0.55;;;22.30;59.70;;;;;;4491703;31;20101;-66
2022/07/07 03:17:35;;;;;;;4.47;0.60;;;22.30;59.70;;;;;;4491910;31;20096;-68
2022/07/07 03:20:01;;;;;;;1.58;0.93;;;22.30;59.80;;;;;;4490811;31;20085;-67
2022/07/07 03:22:27;;;;;;;2.72;0.77;;;22.30;59.70;;;;;;4491881;32;20508;-67
2022/07/07 03:24:53;;;;;;;1.80;0.77;;;22.30;59.70;;;;;;4491929;32;20077;-67
2022/07/07 03:27:19;;;;;;;0.88;0.40;;;22.30;59.70;;;;;;4490595;32;20483;-69
2022/07/07 03:29:45;;;;;;;3.42;0.70;;;22.30;59.70;;;;;;4491830;32;20117;-67
2022/07/07 03:32:11;;;;;;;2.15;0.60;;;22.30;59.70;;;;;;4490494;32;20084;-67
2022/07/07 03:34:37;;;;;;;2.45;1.00;;;22.30;59.70;;;;;;4491399;32;20522;-67
2022/07/07 03:37:03;;;;;;;2.13;0.77;;;22.30;59.80;;;;;;4492065;32;20085;-67
2022/07/07 03:39:29;;;;;;;1.75;0.52;;;22.30;59.80;;;;;;4491956;32;20399;-67
2022/07/07 03:41:56;;;;;;;3.35;0.70;;;22.30;59.80;;;;;;4491704;32;20175;-67
2022/07/07 03:44:21;;;;;;;2.03;0.63;;;22.30;59.80;;;;;;4492020;32;20073;-67
2022/07/07 03:46:47;;;;;;;2.70;0.55;;;22.30;59.80;;;;;;4491967;32;20201;-67
2022/07/07 03:49:13;;;;;;;2.17;0.60;;;22.30;59.80;;;;;;4491337;32;20147;-67
2022/07/07 03:51:39;;;;;;;1.48;0.60;;;22.20;59.80;;;;;;4491838;32;20149;-67
2022/07/07 03:54:04;;;;;;;5.30;1.02;;;22.30;59.80;;;;;;4491393;32;20601;-67
2022/07/07 03:56:30;;;;;;;1.45;0.60;;;22.30;59.80;;;;;;4491453;32;20069;-67
2022/07/07 03:58:57;;;;;;;3.55;0.68;;;22.30;59.80;;;;;;4490630;32;20166;-67
2022/07/07 04:01:22;;;;;;;1.15;0.52;;;22.20;59.80;;;;;;4491540;32;20073;-68
2022/07/07 04:03:48;;;;;;;3.08;0.60;;;22.20;59.80;;;;;;4491407;32;20080;-67
2022/07/07 04:06:14;;;;;;;2.53;0.60;;;22.20;59.80;;;;;;4491798;32;20054;-68
2022/07/07 04:08:40;;;;;;;2.17;0.70;;;22.20;59.80;;;;;;4491610;32;20511;-67
2022/07/07 04:11:06;;;;;;;1.40;0.65;;;22.20;59.80;;;;;;4491554;32;20108;-67
2022/07/07 04:13:31;;;;;;;1.60;0.68;;;22.20;59.80;;;;;;4493816;31;20087;-67
2022/07/07 04:15:57;;;;;;;1.63;0.70;;;22.20;59.90;;;;;;4493449;31;20088;-67
2022/07/07 04:18:23;;;;;;;2.05;0.70;;;22.20;59.80;;;;;;4494455;31;20143;-67
2022/07/07 04:20:49;;;;;;;3.78;1.00;;;22.20;59.80;;;;;;4494061;31;20081;-67
2022/07/07 04:23:15;;;;;;;3.72;0.70;;;22.20;59.80;;;;;;4494626;31;20448;-67
2022/07/07 04:25:41;;;;;;;2.83;0.60;;;22.20;59.80;;;;;;4480261;31;20081;-67
2022/07/07 04:28:07;;;;;;;1.95;0.52;;;22.20;59.90;;;;;;4494555;31;20229;-67
2022/07/07 04:30:34;;;;;;;2.88;0.60;;;22.20;59.90;;;;;;4494336;31;20214;-67
2022/07/07 04:33:00;;;;;;;2.20;0.60;;;22.20;59.90;;;;;;4494286;31;20054;-67
2022/07/07 04:35:25;;;;;;;1.08;0.52;;;22.20;59.90;;;;;;4494167;31;20101;-67
2022/07/07 04:37:51;;;;;;;3.50;0.95;;;22.20;59.90;;;;;;4494149;31;20481;-67
2022/07/07 04:40:17;;;;;;;1.58;0.70;;;22.20;59.90;;;;;;4494352;31;20131;-67
2022/07/07 04:42:43;;;;;;;1.85;0.90;;;22.20;59.90;;;;;;4493013;31;20090;-67
2022/07/07 04:45:09;;;;;;;1.70;0.70;;;22.20;59.90;;;;;;4494095;31;20214;-67
2022/07/07 04:47:40;;;;;;;1.75;0.60;;;22.20;59.90;;;;;;4494333;31;20113;-69
2022/07/07 04:50:10;;;;;;;2.00;0.60;;;22.20;59.90;;;;;;4493941;31;20117;-67
2022/07/07 04:52:37;;;;;;;3.60;0.60;;;22.20;59.90;;;;;;4494055;31;20230;-67
2022/07/07 04:55:03;;;;;;;1.48;0.70;;;22.20;60.00;;;;;;4492890;31;20242;-67
2022/07/07 04:57:29;;;;;;;1.30;0.50;;;22.20;60.00;;;;;;4493888;31;20503;-66
2022/07/07 04:59:55;;;;;;;1.15;0.57;;;22.20;60.00;;;;;;4493799;31;20112;-67
2022/07/07 05:02:21;;;;;;;1.15;0.63;;;22.20;59.90;;;;;;4493724;31;20081;-67
2022/07/07 05:04:48;;;;;;;1.30;0.50;;;22.20;60.00;;;;;;4493710;31;20065;-67
2022/07/07 05:07:15;;;;;;;2.78;0.75;;;22.20;60.00;;;;;;4493545;31;20083;-68
2022/07/07 05:09:41;;;;;;;2.00;0.52;;;22.20;60.00;;;;;;4493728;31;20077;-67
2022/07/07 05:12:08;;;;;;;1.52;0.60;;;22.20;60.00;;;;;;4493678;31;20077;-68
2022/07/07 05:14:34;;;;;;;1.52;0.60;;;22.20;60.00;;;;;;4493386;31;20077;-67
2022/07/07 05:16:59;;;;;;;1.33;0.60;;;22.20;60.00;;;;;;4493559;31;20049;-67
2022/07/07 05:19:26;;;;;;;1.95;0.88;;;22.20;60.00;;;;;;4493726;31;20198;-67
2022/07/07 05:21:52;;;;;;;1.90;0.65;;;22.20;60.00;;;;;;4493721;31;20097;-68
2022/07/07 05:24:18;;;;;;;1.88;0.50;;;22.20;60.10;;;;;;4491850;31;20069;-67
2022/07/07 05:26:44;;;;;;;2.03;0.50;;;22.10;60.00;;;;;;4493458;31;20415;-67
2022/07/07 05:29:10;;;;;;;1.08;0.40;;;22.10;60.00;;;;;;4493677;31;20221;-67
2022/07/07 05:31:37;;;;;;;2.03;0.47;;;22.10;60.00;;;;;;4493453;31;20507;-67
2022/07/07 05:34:03;;;;;;;2.78;1.02;;;22.10;60.00;;;;;;4493416;31;20083;-67
2022/07/07 05:36:29;;;;;;;3.13;0.80;;;22.10;60.00;;;;;;4493027;31;20095;-67
2022/07/07 05:38:55;;;;;;;3.88;1.00;;;22.10;60.00;;;;;;4493190;31;20126;-67
2022/07/07 05:41:21;;;;;;;2.75;0.70;;;22.10;60.00;;;;;;4492912;31;20555;-67
2022/07/07 05:43:48;;;;;;;3.35;0.90;;;22.10;60.00;;;;;;4493100;31;20075;-67
2022/07/07 05:46:14;;;;;;;2.70;0.93;;;22.10;60.00;;;;;;4493304;31;20092;-66
2022/07/07 05:48:40;;;;;;;6.40;0.80;;;22.10;60.10;;;;;;4493088;31;20457;-66
2022/07/07 05:51:06;;;;;;;6.05;0.98;;;22.10;60.20;;;;;;4492899;31;20205;-66
2022/07/07 05:53:32;;;;;;;2.65;0.82;;;22.10;60.20;;;;;;4493249;31;20077;-66
2022/07/07 05:55:58;;;;;;;5.57;1.10;;;22.10;60.20;;;;;;4492718;31;20485;-67
2022/07/07 05:58:24;;;;;;;4.82;0.90;;;22.10;60.20;;;;;;4491824;31;20088;-67
2022/07/07 06:00:50;;;;;;;5.35;1.30;;;22.10;60.30;;;;;;4492806;31;20092;-66
2022/07/07 06:03:16;;;;;;;5.45;1.05;;;22.10;60.40;;;;;;4493040;31;20100;-67
2022/07/07 06:05:43;;;;;;;4.70;1.30;;;22.10;60.40;;;;;;4492741;31;20077;-67
2022/07/07 06:08:09;;;;;;;4.18;1.05;;;22.10;60.40;;;;;;4492773;31;20099;-66
2022/07/07 06:10:35;;;;;;;4.75;1.30;;;22.10;60.50;;;;;;4492621;31;20077;-66
2022/07/07 06:13:02;;;;;;;10.60;1.48;;;22.10;60.60;;;;;;4492830;31;20093;-67
2022/07/07 06:15:30;;;;;;;5.13;1.20;;;22.10;60.60;;;;;;4492629;31;20073;-66
2022/07/07 06:17:58;;;;;;;6.43;1.38;;;22.10;60.60;;;;;;4492821;31;20086;-67
2022/07/07 06:20:24;;;;;;;4.55;1.10;;;22.10;60.70;;;;;;4492517;31;20087;-66
2022/07/07 06:22:50;;;;;;;5.63;1.52;;;22.20;60.70;;;;;;4492563;31;20087;-66
2022/07/07 06:25:16;;;;;;;5.22;1.40;;;22.20;60.80;;;;;;4491509;31;20073;-67
2022/07/07 06:27:42;;;;;;;7.20;1.45;;;22.20;60.70;;;;;;4492458;31;20077;-67
2022/07/07 06:30:08;;;;;;;6.40;1.42;;;22.30;60.70;;;;;;4492473;31;20117;-66
2022/07/07 06:32:35;;;;;;;6.80;1.67;;;22.30;60.70;;;;;;4492464;31;20738;-66
2022/07/07 06:35:01;;;;;;;4.20;1.13;;;22.30;60.70;;;;;;4492195;31;20521;-66
2022/07/07 06:37:27;;;;;;;4.15;1.08;;;22.40;60.80;;;;;;4492414;31;20281;-66
2022/07/07 06:39:54;;;;;;;4.28;1.40;;;22.40;60.80;;;;;;4491269;31;20110;-66
2022/07/07 06:42:20;;;;;;;4.50;1.40;;;22.40;60.80;;;;;;4492058;31;20073;-66
2022/07/07 06:44:46;;;;;;;5.15;1.45;;;22.40;60.80;;;;;;4492292;31;20132;-66
2022/07/07 06:47:11;;;;;;;5.40;1.40;;;22.40;60.80;;;;;;4491177;31;20081;-66
2022/07/07 06:49:37;;;;;;;8.35;1.98;;;22.40;60.80;;;;;;4492043;31;20367;-68
2022/07/07 06:52:04;;;;;;;5.40;1.27;;;22.50;60.90;;;;;;4492417;31;20072;-66
2022/07/07 06:54:29;;;;;;;5.15;1.05;;;22.50;60.80;;;;;;4492283;31;20511;-66
2022/07/07 06:56:55;;;;;;;3.83;1.10;;;22.50;60.80;;;;;;4492122;31;20109;-66
2022/07/07 06:59:21;;;;;;;4.18;1.02;;;22.50;60.70;;;;;;4492110;31;20235;-65
2022/07/07 07:01:48;;;;;;;4.65;1.20;;;22.50;60.80;;;;;;4491742;31;20128;-66
2022/07/07 07:04:14;;;;;;;6.05;1.15;;;22.60;60.80;;;;;;4492045;31;20069;-69
2022/07/07 07:06:44;;;;;;;3.85;0.98;;;22.60;60.80;;;;;;4492182;31;20053;-66
2022/07/07 07:09:10;;;;;;;3.78;1.30;;;22.60;60.70;;;;;;4492235;31;20177;-66
2022/07/07 07:11:37;;;;;;;4.47;1.05;;;22.60;60.70;;;;;;4491539;31;20077;-65
2022/07/07 07:14:03;;;;;;;8.23;1.30;;;22.60;60.80;;;;;;4492162;31;20087;-65
2022/07/07 07:16:30;;;;;;;4.80;1.33;;;22.60;60.80;;;;;;4491901;31;20093;-65
2022/07/07 07:18:56;;;;;;;8.10;1.63;;;22.60;61.70;;;;;;4490775;31;20129;-66
2022/07/07 07:21:22;;;;;;;5.65;1.40;;;22.60;60.90;;;;;;4491736;31;20073;-66
2022/07/07 07:23:48;;;;;;;4.05;0.95;;;22.60;61.10;;;;;;4491772;32;20135;-66
2022/07/07 07:26:13;;;;;;;6.00;1.50;;;22.60;61.30;;;;;;4491944;32;20215;-65
2022/07/07 07:28:39;;;;;;;6.53;1.10;;;22.60;61.50;;;;;;4491990;32;20081;-69
2022/07/07 07:31:05;;;;;;;4.70;1.25;;;22.60;61.60;;;;;;4491781;32;20198;-66
2022/07/07 07:33:32;;;;;;;3.92;1.20;;;22.60;61.60;;;;;;4490766;32;20073;-66
2022/07/07 07:35:58;;;;;;;5.03;1.65;;;22.60;61.50;;;;;;4491952;32;20124;-66
2022/07/07 07:38:24;;;;;;;3.78;1.13;;;22.60;61.50;;;;;;4491540;32;20085;-66
2022/07/07 07:40:50;;;;;;;8.85;1.38;;;22.70;61.60;;;;;;4491684;32;20512;-66
2022/07/07 07:43:16;;;;;;;4.82;1.45;;;22.70;61.40;;;;;;4492002;32;20053;-66
2022/07/07 07:45:42;;;;;;;6.93;1.65;;;22.70;61.40;;;;;;4490667;32;20220;-66
2022/07/07 07:48:08;;;;;;;6.85;1.40;;;22.70;61.30;;;;;;4493528;31;20081;-66
2022/07/07 07:50:34;;;;;;;7.60;1.55;;;22.70;61.40;;;;;;4494610;31;20085;-68
2022/07/07 07:53:04;;;;;;;4.93;1.38;;;22.70;61.40;;;;;;4494741;31;20069;-66
2022/07/07 07:55:31;;;;;;;5.38;1.55;;;22.70;61.70;;;;;;4494819;31;20608;-66
2022/07/07 07:57:57;;;;;;;3.35;1.10;;;22.70;61.80;;;;;;4494910;31;20065;-66
2022/07/07 08:00:24;;;;;;;7.78;1.50;;;22.70;61.90;;;;;;4494587;31;20081;-66
2022/07/07 08:02:51;;;;;;;8.95;1.60;;;22.70;61.90;;;;;;4493559;31;20581;-66
2022/07/07 08:05:18;;;;;;;7.78;1.15;;;22.70;61.90;;;;;;4494623;31;20089;-66
2022/07/07 08:07:45;;;;;;;4.10;1.45;;;22.70;62.00;;;;;;4494772;31;20223;-66
2022/07/07 08:10:13;;;;;;;5.45;1.60;;;22.70;62.00;;;;;;4494270;31;20089;-66
2022/07/07 08:12:41;;;;;;;5.15;1.30;;;22.70;61.90;;;;;;4493194;31;20085;-68
2022/07/07 08:15:07;;;;;;;3.25;1.30;;;22.70;62.00;;;;;;4493249;31;20429;-66
2022/07/07 08:17:33;;;;;;;4.78;1.20;;;22.70;61.90;;;;;;4493159;31;20092;-66
2022/07/07 08:20:01;;;;;;;3.97;1.25;;;22.70;61.90;;;;;;4494115;31;20081;-66
2022/07/07 08:22:27;;;;;;;7.18;1.55;;;22.70;61.90;;;;;;4494026;31;20140;-66
2022/07/07 08:24:53;;;;;;;3.55;1.40;;;22.70;61.90;;;;;;4494076;31;20091;-66
2022/07/07 08:27:19;;;;;;;4.15;1.30;;;22.60;61.90;;;;;;4494116;31;20219;-66
2022/07/07 08:29:45;;;;;;;6.63;1.25;;;22.60;61.90;;;;;;4493226;31;20095;-66
2022/07/07 08:32:11;;;;;;;3.47;1.23;;;22.60;61.90;;;;;;4494459;31;20069;-66
2022/07/07 08:34:39;;;;;;;5.03;1.30;;;22.60;61.90;;;;;;4493038;31;20100;-66
2022/07/07 08:37:05;;;;;;;3.50;1.20;;;22.60;61.90;;;;;;4494139;31;20080;-66
2022/07/07 08:39:31;;;;;;;6.20;1.48;;;22.60;61.90;;;;;;4493955;31;20161;-66
2022/07/07 08:41:58;;;;;;;5.50;1.70;;;22.60;61.90;;;;;;4494054;31;20418;-66
2022/07/07 08:44:25;;;;;;;3.97;1.27;;;22.60;61.90;;;;;;4493800;31;20077;-66
2022/07/07 08:46:51;;;;;;;8.85;1.40;;;22.70;62.00;;;;;;4493956;31;20162;-67
2022/07/07 08:49:17;;;;;;;3.58;1.23;;;22.70;62.10;;;;;;4494063;31;20162;-66
2022/07/07 08:51:44;;;;;;;6.90;1.50;;;22.70;62.10;;;;;;4493970;31;20491;-66
2022/07/07 08:54:12;;;;;;;7.97;1.58;;;22.70;62.20;;;;;;4494204;31;20081;-66
2022/07/07 08:56:39;;;;;;;6.72;1.10;;;22.70;62.30;;;;;;4493771;31;20078;-66
2022/07/07 08:59:11;;;;;;;4.35;1.50;;;22.70;62.40;;;;;;4491399;31;20541;-66
2022/07/07 09:01:37;;;;;;;6.82;1.40;;;22.70;62.60;;;;;;4492795;31;20573;-66
2022/07/07 09:04:03;;;;;;;4.82;1.25;;;22.70;62.50;;;;;;4493775;31;20240;-67
2022/07/07 09:06:29;;;;;;;4.25;1.15;;;22.70;62.60;;;;;;4493848;31;20085;-67
2022/07/07 09:08:56;;;;;;;4.88;1.80;;;22.70;62.60;;;;;;4493663;31;20088;-66
2022/07/07 09:11:29;;;;;;;4.07;1.38;;;22.70;62.70;;;;;;4493658;31;20089;-66
2022/07/07 09:14:11;;;;;;;5.60;1.27;;;22.70;62.70;;;;;;4493636;31;20073;-68
2022/07/07 09:16:38;;;;;;;7.53;1.83;;;22.70;62.70;;;;;;4493581;31;20093;-66
2022/07/07 09:19:16;;;;;;;4.20;1.38;;;22.70;62.70;;;;;;4493466;31;20080;-66
2022/07/07 09:21:42;;;;;;;6.05;1.20;;;22.70;62.70;;;;;;4493321;31;20253;-67
2022/07/07 09:24:08;;;;;;;4.07;1.25;;;22.70;62.80;;;;;;4493469;31;20071;-67
2022/07/07 09:26:37;;;;;;;5.03;1.40;;;22.70;62.70;;;;;;4493506;31;20556;-67
2022/07/07 09:29:05;;;;;;;4.88;1.10;;;22.70;62.70;;;;;;4493364;31;20203;-66
2022/07/07 09:31:51;;;;;;;6.03;1.33;;;22.70;62.70;;;;;;4493372;31;20092;-66
2022/07/07 09:34:17;;;;;;;5.78;1.30;;;22.70;62.60;;;;;;4493301;31;20164;-66
2022/07/07 09:39:55;;;;;;;4.85;1.98;;;22.70;62.80;;;;;;4493276;31;20169;-66
2022/07/07 09:42:24;;;;;;;4.70;1.40;;;22.70;62.60;;;;;;4493272;31;20162;-66
2022/07/07 09:44:55;;;;;;;4.30;1.23;;;22.70;62.50;;;;;;4493265;31;20088;-67
2022/07/07 09:47:23;;;;;;;3.72;1.48;;;22.70;62.50;;;;;;4493129;31;20422;-66
2022/07/07 09:50:13;;;;;;;5.38;1.63;;;22.70;62.60;;;;;;4492782;31;20595;-66
2022/07/07 09:52:41;;;;;;;4.03;1.08;;;22.70;62.50;;;;;;4493565;31;20182;-66
2022/07/07 09:55:09;;;;;;;6.80;1.50;;;22.70;62.50;;;;;;4493105;31;20166;-66
2022/07/07 09:57:36;;;;;;;7.38;1.30;;;22.70;62.60;;;;;;4493373;31;20095;-66
2022/07/07 10:00:03;;;;;;;7.28;1.27;;;22.70;62.60;;;;;;4492761;31;20418;-66
2022/07/07 10:02:29;;;;;;;5.97;1.23;;;22.70;62.60;;;;;;4492774;31;20085;-66
2022/07/07 10:04:58;;;;;;;5.10;1.27;;;22.70;62.50;;;;;;4492703;31;20080;-66
2022/07/07 10:07:26;;;;;;;4.43;1.17;;;22.70;62.50;;;;;;4492776;31;20227;-66
2022/07/07 10:10:00;;;;;;;4.80;1.20;;;22.70;62.40;;;;;;4492175;31;20231;-66
2022/07/07 10:12:27;;;;;;;8.05;1.40;;;22.70;62.40;;;;;;4492939;31;20161;-66
2022/07/07 10:14:58;;;;;;;5.05;1.30;;;22.70;62.40;;;;;;4492648;31;20507;-66
2022/07/07 10:17:26;;;;;;;6.20;1.73;;;22.70;62.30;;;;;;4492703;31;20081;-66
2022/07/07 10:19:52;;;;;;;6.00;1.90;;;22.70;62.30;;;;;;4492466;31;20065;-66
2022/07/07 10:22:21;;;;;;;6.85;1.75;;;22.70;62.10;;;;;;4492438;31;20089;-66
2022/07/07 10:24:47;;;;;;;6.68;1.42;;;22.70;62.10;;;;;;4491398;31;20105;-66
2022/07/07 10:27:15;;;;;;;7.70;1.75;;;22.70;62.00;;;;;;4492411;31;20084;-66
2022/07/07 10:29:45;;;;;;;6.07;1.60;;;22.70;62.00;;;;;;4492503;31;20096;-67
2022/07/07 10:32:16;;;;;;;7.07;1.80;;;22.70;61.90;;;;;;4492413;31;20077;-66
2022/07/07 10:34:54;;;;;;;4.57;1.30;;;22.70;61.70;;;;;;4492694;31;20061;-66
2022/07/07 10:37:22;;;;;;;6.82;1.60;;;22.70;61.60;;;;;;4492189;31;20584;-66
2022/07/07 10:39:50;;;;;;;8.52;1.98;;;22.70;61.40;;;;;;4492010;31;20167;-66
2022/07/07 10:42:16;;;;;;;6.45;1.80;;;22.70;61.50;;;;;;4492191;31;20243;-66
2022/07/07 10:44:46;;;;;;;8.05;1.77;;;22.70;61.40;;;;;;4492238;31;20157;-66
2022/07/07 10:47:12;;;;;;;6.05;1.75;;;22.80;61.50;;;;;;4491187;31;20621;-66
2022/07/07 10:49:49;;;;;;;5.93;1.23;;;22.70;61.40;;;;;;4491829;31;20085;-66
2022/07/07 10:52:16;;;;;;;5.88;1.60;;;22.80;61.40;;;;;;4492503;31;20065;-66
2022/07/07 10:54:54;;;;;;;8.30;2.40;;;22.80;61.30;;;;;;4492410;31;20088;-66
2022/07/07 10:57:22;;;;;;;6.85;1.73;;;22.80;61.10;;;;;;4492523;31;20077;-66
2022/07/07 10:59:59;;;;;;;15.10;3.08;;;22.80;60.90;;;;;;4491802;31;20170;-66
2022/07/07 11:02:39;;;;;;;23.02;5.45;;;22.80;60.80;;;;;;4492357;31;20117;-66
2022/07/07 11:05:14;;;;;;;23.25;5.53;;;22.80;60.50;;;;;;4491675;31;20073;-66
2022/07/07 11:08:03;;;;;;;27.17;5.43;;;22.80;60.40;;;;;;4492039;31;20087;-66
2022/07/07 11:10:55;;;;;;;23.52;5.43;;;22.80;60.20;;;;;;4492414;31;20093;-65
2022/07/07 11:13:34;;;;;;;20.77;5.10;;;22.80;60.10;;;;;;4475109;31;20092;-67
2022/07/07 11:16:11;;;;;;;22.73;5.40;;;22.80;60.00;;;;;;4490776;31;20620;-67
2022/07/07 11:18:37;;;;;;;15.38;4.20;;;22.80;59.90;;;;;;4492281;31;20105;-68
2022/07/07 11:21:05;;;;;;;21.98;4.90;;;22.80;59.90;;;;;;4491765;31;20080;-68
2022/07/07 11:23:49;;;;;;;12.50;3.92;;;22.80;59.70;;;;;;4490195;31;20203;-68
2022/07/07 11:26:24;;;;;;;12.15;3.35;;;22.80;59.30;;;;;;4491776;32;20068;-68
2022/07/07 11:28:55;;;;;;;13.00;3.28;;;22.80;59.20;;;;;;4492085;32;20161;-68
2022/07/07 11:31:22;;;;;;;16.27;3.83;;;22.80;59.00;;;;;;4492204;32;20088;-68
2022/07/07 11:33:53;;;;;;;15.43;3.78;;;22.80;59.00;;;;;;4491593;32;20085;-67
2022/07/07 11:36:21;;;;;;;11.93;3.20;;;22.80;59.00;;;;;;4491552;31;20518;-66
2022/07/07 11:38:55;;;;;;;15.05;3.10;;;22.80;58.70;;;;;;4492031;32;20537;-66
2022/07/07 11:41:20;;;;;;;10.50;2.60;;;22.80;58.30;;;;;;4490452;32;20053;-67
2022/07/07 11:43:54;;;;;;;13.07;3.00;;;22.80;58.30;;;;;;4490041;32;20100;-67
2022/07/07 11:46:25;;;;;;;15.68;2.83;;;22.80;58.10;;;;;;4490374;32;20097;-67
2022/07/07 11:48:51;;;;;;;9.75;2.42;;;22.80;58.10;;;;;;4490587;32;20069;-68
2022/07/07 11:51:27;;;;;;;12.88;2.75;;;22.80;58.00;;;;;;4491141;32;20155;-68
2022/07/07 11:53:58;;;;;;;14.98;2.88;;;22.80;57.90;;;;;;4490628;32;20170;-67
2022/07/07 11:56:28;;;;;;;9.65;2.70;;;22.80;57.80;;;;;;4490693;32;20092;-67
2022/07/07 11:58:56;;;;;;;13.65;2.42;;;22.80;57.80;;;;;;4491648;32;20480;-68
2022/07/07 12:01:22;;;;;;;10.18;2.30;;;22.80;57.80;;;;;;4491390;32;20135;-67
2022/07/07 12:03:48;;;;;;;9.13;2.30;;;22.80;57.80;;;;;;4490197;32;20649;-68
2022/07/07 12:06:14;;;;;;;9.10;2.70;;;22.80;57.70;;;;;;4491262;32;20625;-66
2022/07/07 12:08:40;;;;;;;8.02;1.90;;;22.80;57.60;;;;;;4491703;32;20069;-68
2022/07/07 12:11:06;;;;;;;12.60;2.30;;;22.80;57.80;;;;;;4491578;32;20109;-68
2022/07/07 12:13:32;;;;;;;9.88;2.30;;;22.80;57.70;;;;;;4491287;32;20406;-68
2022/07/07 12:16:03;;;;;;;8.50;2.28;;;22.90;57.90;;;;;;4491483;32;20384;-67
2022/07/07 12:18:31;;;;;;;8.02;2.30;;;22.90;58.00;;;;;;4491784;32;20065;-68
2022/07/07 12:21:24;;;;;;;8.80;2.20;;;22.90;57.90;;;;;;4491717;32;20117;-69
2022/07/07 12:23:53;;;;;;;10.85;2.50;;;22.90;58.00;;;;;;4491586;32;20065;-68
2022/07/07 12:26:26;;;;;;;7.13;2.33;;;22.90;58.00;;;;;;4491081;32;20214;-70
2022/07/07 12:29:01;;;;;;;11.10;2.40;;;22.90;57.90;;;;;;4491467;32;20479;-68
2022/07/07 12:31:27;;;;;;;8.48;2.22;;;22.90;57.80;;;;;;4491342;32;20120;-68
2022/07/07 12:33:54;;;;;;;10.15;2.15;;;22.90;57.80;;;;;;4492838;31;20174;-67
2022/07/07 12:36:24;;;;;;;12.27;2.72;;;22.90;57.80;;;;;;4494189;31;20077;-68
2022/07/07 12:38:59;;;;;;;10.48;2.38;;;22.90;57.80;;;;;;4492801;31;20089;-69
2022/07/07 12:41:32;;;;;;;12.40;2.30;;;22.80;57.70;;;;;;4494135;31;20227;-68
2022/07/07 12:44:18;;;;;;;9.60;2.35;;;22.80;57.60;;;;;;4494303;31;20178;-68
2022/07/07 12:46:45;;;;;;;12.75;2.28;;;22.80;57.50;;;;;;4493927;31;20534;-69
2022/07/07 12:49:13;;;;;;;10.10;2.47;;;22.80;57.70;;;;;;4493821;31;20211;-68
2022/07/07 12:51:42;;;;;;;11.80;2.30;;;22.80;57.70;;;;;;4494159;31;20486;-68